Time;durP1;ratioP1;P1;durP2;ratioP2;P2;SDS_P1;SDS_P2;PMS_P1;PMS_P2;Temp;Humidity;BMP_temperature;BMP_pressure;BME280_temperature;BME280_humidity;BME280_pressure;Samples;Min_cycle;Max_cycle;Signal;HPM_P1;HPM_P2
2023/07/11 00:00:18;;;;;;;;;13.50;13.00;;;;;24.44;51.03;100876.30;110192;1250;24337;-39
2023/07/11 00:03:06;;;;;;;;;16.67;15.67;;;;;24.43;51.39;100885.60;110179;1261;21521;-39
2023/07/11 00:05:33;;;;;;;;;16.00;14.00;;;;;24.40;51.58;100891.78;110213;1265;20448;-39
2023/07/11 00:08:01;;;;;;;;;10.00;10.00;;;;;24.39;51.58;100889.20;110196;1264;22272;-39
2023/07/11 00:10:28;;;;;;;;;12.00;12.00;;;;;24.38;51.75;100885.55;110229;1249;22734;-38
2023/07/11 00:12:55;;;;;;;;;10.00;9.00;;;;;24.36;51.90;100880.61;110203;1256;20010;-38
2023/07/11 00:15:23;;;;;;;;;8.67;8.00;;;;;24.36;52.04;100875.75;110207;1250;20608;-38
2023/07/11 00:17:50;;;;;;;;;6.00;6.00;;;;;24.34;52.14;100872.73;110159;1250;20043;-38
2023/07/11 00:20:18;;;;;;;;;9.00;9.00;;;;;24.27;52.48;100866.98;110209;1264;18615;-38
2023/07/11 00:22:45;;;;;;;;;8.00;8.00;;;;;24.28;52.67;100867.41;110203;1250;20892;-38
2023/07/11 00:25:12;;;;;;;;;9.00;8.50;;;;;24.31;52.70;100870.92;110205;1256;19727;-37
2023/07/11 00:27:40;;;;;;;;;8.00;8.00;;;;;24.31;52.76;100874.64;110221;1250;20025;-38
2023/07/11 00:30:08;;;;;;;;;8.00;8.00;;;;;24.32;52.92;100880.73;110197;1264;19981;-38
2023/07/11 00:32:36;;;;;;;;;8.00;8.00;;;;;24.33;52.96;100884.27;110182;1250;19686;-38
2023/07/11 00:35:03;;;;;;;;;9.00;8.50;;;;;24.31;53.16;100882.39;110255;1250;18621;-39
2023/07/11 00:37:31;;;;;;;;;8.00;8.00;;;;;24.31;53.38;100880.95;110310;1250;20792;-38
2023/07/11 00:39:58;;;;;;;;;8.00;8.00;;;;;24.30;53.35;100883.77;110220;1250;20794;-39
2023/07/11 00:42:26;;;;;;;;;8.00;8.00;;;;;24.29;53.58;100888.86;110207;1250;19851;-39
2023/07/11 00:44:53;;;;;;;;;9.00;8.00;;;;;24.30;53.54;100902.70;110190;1265;19358;-38
2023/07/11 00:47:20;;;;;;;;;8.50;8.00;;;;;24.29;53.60;100908.84;110213;1250;19673;-38
2023/07/11 00:49:48;;;;;;;;;9.67;9.33;;;;;24.28;53.65;100912.74;110208;1250;20167;-38
2023/07/11 00:52:15;;;;;;;;;9.00;8.00;;;;;24.26;53.72;100910.71;110193;1250;21191;-38
2023/07/11 00:54:43;;;;;;;;;8.00;8.00;;;;;24.23;53.89;100910.34;110229;1256;19701;-37
2023/07/11 00:57:10;;;;;;;;;7.00;7.00;;;;;24.22;53.96;100909.79;110181;1264;18656;-38
2023/07/11 00:59:37;;;;;;;;;8.50;8.50;;;;;24.22;53.93;100913.58;110276;1256;20985;-37
2023/07/11 01:02:05;;;;;;;;;8.00;8.00;;;;;24.22;54.25;100905.20;110195;1264;18462;-39
2023/07/11 01:04:32;;;;;;;;;9.00;9.00;;;;;24.20;54.40;100905.67;110131;1250;20056;-39
2023/07/11 01:07:00;;;;;;;;;9.00;8.00;;;;;24.19;54.45;100903.41;110258;1264;19334;-38
2023/07/11 01:09:28;;;;;;;;;12.00;9.00;;;;;24.19;54.59;100904.29;110202;1264;20075;-39
2023/07/11 01:11:55;;;;;;;;;9.00;8.00;;;;;24.18;54.59;100900.09;110164;1264;18655;-39
2023/07/11 01:14:23;;;;;;;;;9.00;9.00;;;;;24.18;54.63;100906.32;110190;1256;21847;-38
2023/07/11 01:16:50;;;;;;;;;9.33;8.33;;;;;24.16;54.70;100911.65;110218;1250;18505;-39
2023/07/11 01:19:17;;;;;;;;;8.67;8.67;;;;;24.12;54.91;100918.76;110173;1265;18594;-39
2023/07/11 01:21:45;;;;;;;;;8.00;6.00;;;;;23.66;56.06;100925.45;110223;1256;20667;-39
2023/07/11 01:24:12;;;;;;;;;9.00;8.00;;;;;23.45;57.02;100932.02;110191;1265;18446;-39
2023/07/11 01:26:40;;;;;;;;;10.67;9.00;;;;;23.39;57.42;100933.02;110081;1265;18864;-39
2023/07/11 01:29:07;;;;;;;;;9.00;9.00;;;;;23.25;57.90;100933.98;110183;1250;20606;-39
2023/07/11 01:31:35;;;;;;;;;7.00;7.00;;;;;23.23;58.05;100927.13;110199;1264;22773;-39
2023/07/11 01:34:03;;;;;;;;;8.00;8.00;;;;;23.25;58.08;100924.14;110197;1250;20098;-39
2023/07/11 01:36:30;;;;;;;;;8.00;8.00;;;;;23.27;58.20;100928.66;110202;1256;21093;-39
2023/07/11 01:38:58;;;;;;;;;9.00;9.00;;;;;23.21;58.25;100931.60;110216;1257;18542;-38
2023/07/11 01:41:25;;;;;;;;;10.00;10.00;;;;;23.12;58.59;100936.48;110251;1250;20053;-38
2023/07/11 01:43:53;;;;;;;;;9.00;8.67;;;;;22.99;59.00;100939.58;110186;1251;20803;-38
2023/07/11 01:46:20;;;;;;;;;8.00;8.00;;;;;22.99;58.97;100938.05;110275;1264;18557;-39
2023/07/11 01:48:48;;;;;;;;;8.50;8.50;;;;;23.00;58.93;100932.11;110150;1250;20031;-38
2023/07/11 01:51:15;;;;;;;;;8.67;8.00;;;;;22.93;59.10;100934.44;110217;1250;22404;-39
2023/07/11 01:53:42;;;;;;;;;8.00;8.00;;;;;23.01;58.84;100940.73;110285;1264;18536;-38
2023/07/11 01:56:10;;;;;;;;;8.00;8.00;;;;;22.99;58.88;100943.05;110218;1250;20135;-38
2023/07/11 01:58:38;;;;;;;;;6.00;6.00;;;;;22.97;58.94;100945.42;110170;1257;20664;-39
2023/07/11 02:01:06;;;;;;;;;6.00;6.00;;;;;22.95;58.89;100953.59;110268;1264;18577;-37
2023/07/11 02:03:33;;;;;;;;;9.00;9.00;;;;;22.87;58.99;100959.60;110221;1249;22743;-37
2023/07/11 02:06:01;;;;;;;;;6.00;6.00;;;;;22.88;59.22;100962.73;110170;1265;19292;-37
2023/07/11 02:08:28;;;;;;;;;9.00;8.00;;;;;22.90;59.31;100968.45;110267;1261;19982;-37
2023/07/11 02:10:55;;;;;;;;;9.00;8.00;;;;;22.84;59.37;100965.89;110228;1250;20513;-38
2023/07/11 02:13:23;;;;;;;;;8.50;8.00;;;;;22.77;59.70;100969.37;110212;1250;20796;-39
2023/07/11 02:15:50;;;;;;;;;8.00;8.00;;;;;22.75;59.92;100967.06;110191;1250;19650;-38
2023/07/11 02:18:18;;;;;;;;;11.00;11.00;;;;;22.73;60.26;100965.68;110191;1250;22078;-37
2023/07/11 02:20:45;;;;;;;;;8.00;8.00;;;;;22.83;60.18;100959.30;110171;1264;19330;-38
2023/07/11 02:23:13;;;;;;;;;9.00;9.00;;;;;22.85;60.16;100955.55;110184;1250;22643;-37
2023/07/11 02:25:40;;;;;;;;;11.00;9.00;;;;;22.83;60.41;100958.45;110232;1250;20173;-37
2023/07/11 02:28:07;;;;;;;;;9.00;9.00;;;;;22.72;61.02;100952.63;110228;1250;21127;-38
2023/07/11 02:30:35;;;;;;;;;11.00;9.00;;;;;22.59;61.32;100944.15;110204;1250;20130;-38
2023/07/11 02:33:02;;;;;;;;;11.00;9.00;;;;;22.73;61.36;100945.59;110214;1249;20034;-39
2023/07/11 02:35:30;;;;;;;;;9.00;8.50;;;;;22.79;61.28;100944.86;110188;1250;21547;-39
2023/07/11 02:37:57;;;;;;;;;11.00;9.00;;;;;22.79;61.20;100943.90;110165;1264;22561;-38
2023/07/11 02:40:24;;;;;;;;;11.00;11.00;;;;;22.77;61.34;100936.71;110143;1250;20093;-38
2023/07/11 02:42:52;;;;;;;;;9.00;9.00;;;;;22.82;61.41;100934.85;110281;1250;20945;-38
2023/07/11 02:45:20;;;;;;;;;19.00;16.00;;;;;22.83;61.16;100937.14;110228;1249;22729;-39
2023/07/11 02:47:47;;;;;;;;;14.50;14.50;;;;;22.90;61.20;100942.48;110229;1249;20124;-38
2023/07/11 02:50:15;;;;;;;;;10.00;10.00;;;;;22.87;61.20;100947.32;110219;1257;22087;-39
2023/07/11 02:52:42;;;;;;;;;11.00;9.00;;;;;22.85;61.43;100951.85;110273;1256;19962;-38
2023/07/11 02:55:09;;;;;;;;;13.00;11.00;;;;;22.76;61.50;100961.64;110215;1250;22089;-38
2023/07/11 02:57:37;;;;;;;;;12.00;11.00;;;;;22.68;61.84;100964.80;110215;1250;20773;-38
2023/07/11 03:00:04;;;;;;;;;12.00;12.00;;;;;22.69;61.91;100966.16;110184;1264;18607;-38
2023/07/11 03:02:32;;;;;;;;;13.00;11.00;;;;;22.70;61.85;100956.68;110209;1250;22770;-38
2023/07/11 03:04:59;;;;;;;;;13.33;11.33;;;;;22.62;62.23;100961.29;110136;1257;20709;-38
2023/07/11 03:07:27;;;;;;;;;18.00;16.00;;;;;22.57;62.53;100960.33;110260;1250;20028;-38
2023/07/11 03:09:54;;;;;;;;;17.50;15.00;;;;;22.55;62.62;100953.17;110204;1264;18596;-38
2023/07/11 03:12:22;;;;;;;;;11.00;11.00;;;;;22.65;62.45;100953.86;110159;1249;20914;-39
2023/07/11 03:14:49;;;;;;;;;15.50;11.00;;;;;22.68;62.46;100953.91;110191;1265;18618;-39
2023/07/11 03:17:16;;;;;;;;;14.50;13.00;;;;;22.68;62.32;100954.09;110207;1250;20238;-39
2023/07/11 03:19:44;;;;;;;;;11.67;11.33;;;;;22.68;62.28;100954.93;110249;1256;19370;-38
2023/07/11 03:22:11;;;;;;;;;17.00;16.50;;;;;22.69;62.39;100957.08;110195;1256;21024;-39
2023/07/11 03:24:39;;;;;;;;;15.50;15.00;;;;;22.62;62.32;100956.38;110225;1250;22751;-39
2023/07/11 03:27:06;;;;;;;;;12.00;12.00;;;;;22.65;62.41;100954.75;110206;1250;20818;-39
2023/07/11 03:29:33;;;;;;;;;18.00;16.00;;;;;22.66;62.56;100951.68;110243;1250;20055;-39
2023/07/11 03:32:01;;;;;;;;;12.00;12.00;;;;;22.62;62.49;100951.84;110203;1250;22848;-39
2023/07/11 03:34:28;;;;;;;;;16.00;14.00;;;;;22.64;62.54;100945.36;110226;1250;20680;-39
2023/07/11 03:36:56;;;;;;;;;19.00;15.00;;;;;22.63;62.35;100940.26;110191;1250;20069;-38
2023/07/11 03:39:23;;;;;;;;;13.00;13.00;;;;;22.60;62.41;100950.25;110199;1250;20124;-38
2023/07/11 03:41:51;;;;;;;;;18.50;15.00;;;;;22.58;62.66;100955.43;110251;1250;21047;-38
2023/07/11 03:44:18;;;;;;;;;14.00;14.00;;;;;22.59;62.82;100954.02;110202;1250;21234;-38
2023/07/11 03:46:46;;;;;;;;;14.00;14.00;;;;;22.58;62.86;100958.51;110240;1265;22811;-38
2023/07/11 03:49:13;;;;;;;;;15.00;14.00;;;;;22.58;62.77;100958.70;110201;1250;20791;-39
2023/07/11 03:51:41;;;;;;;;;12.00;12.00;;;;;22.57;62.83;100945.84;110198;1265;22889;-38
2023/07/11 03:54:08;;;;;;;;;12.00;12.00;;;;;22.55;63.02;100950.81;110185;1265;18711;-39
2023/07/11 03:56:36;;;;;;;;;14.00;12.00;;;;;22.59;62.85;100943.77;110234;1249;20701;-39
2023/07/11 03:59:03;;;;;;;;;9.00;9.00;;;;;22.65;62.65;100950.39;110241;1249;22658;-38
2023/07/11 04:01:30;;;;;;;;;11.50;11.50;;;;;22.67;62.79;100954.73;110172;1264;18812;-39
2023/07/11 04:03:58;;;;;;;;;12.00;12.00;;;;;22.66;62.58;100963.96;110222;1250;20929;-39
2023/07/11 04:06:25;;;;;;;;;12.00;12.00;;;;;22.60;62.74;100962.95;110250;1257;19924;-39
2023/07/11 04:08:53;;;;;;;;;14.50;13.00;;;;;22.55;63.25;100965.81;110194;1249;21470;-39
2023/07/11 04:11:20;;;;;;;;;13.00;11.50;;;;;22.55;63.27;100967.13;110192;1250;20666;-39
2023/07/11 04:13:47;;;;;;;;;12.00;11.00;;;;;22.60;63.26;100966.86;110091;1250;20042;-39
2023/07/11 04:16:15;;;;;;;;;12.67;11.67;;;;;22.61;63.17;100963.77;110198;1264;19106;-39
2023/07/11 04:18:42;;;;;;;;;12.00;12.00;;;;;22.59;63.09;100962.73;110199;1256;22111;-38
2023/07/11 04:21:10;;;;;;;;;14.00;14.00;;;;;22.54;63.46;100964.83;110190;1249;20066;-38
2023/07/11 04:23:37;;;;;;;;;11.50;10.50;;;;;22.51;63.41;100959.89;110264;1250;21490;-38
2023/07/11 04:26:05;;;;;;;;;14.50;14.00;;;;;22.52;63.40;100953.36;110254;1250;21987;-38
2023/07/11 04:28:32;;;;;;;;;14.00;12.00;;;;;22.54;63.62;100953.17;110264;1260;20060;-39
2023/07/11 04:30:59;;;;;;;;;14.50;13.00;;;;;22.53;63.58;100956.02;110200;1250;20223;-39
2023/07/11 04:33:27;;;;;;;;;14.00;14.00;;;;;22.56;63.57;100956.23;110256;1265;19353;-38
2023/07/11 04:35:54;;;;;;;;;18.00;15.50;;;;;22.59;63.46;100962.90;110243;1256;23776;-38
2023/07/11 04:38:22;;;;;;;;;18.33;16.00;;;;;22.59;63.42;100965.08;110232;1264;18720;-38
2023/07/11 04:40:50;;;;;;;;;21.00;19.00;;;;;22.58;63.43;100968.92;110211;1264;19317;-38
2023/07/11 04:43:17;;;;;;;;;21.00;18.00;;;;;22.58;63.62;100970.02;110271;1250;20049;-38
2023/07/11 04:45:44;;;;;;;;;18.33;15.33;;;;;22.59;63.21;100972.02;110247;1265;20037;-38
2023/07/11 04:48:12;;;;;;;;;16.00;14.00;;;;;22.60;63.39;100968.97;110280;1250;19414;-38
2023/07/11 04:50:39;;;;;;;;;16.00;16.00;;;;;22.57;63.36;100969.61;110266;1264;18562;-38
2023/07/11 04:53:06;;;;;;;;;27.00;25.50;;;;;22.54;63.75;100968.94;110228;1265;18737;-38
2023/07/11 04:55:34;;;;;;;;;19.50;17.50;;;;;22.55;63.53;100973.55;110197;1249;22001;-38
2023/07/11 04:58:01;;;;;;;;;33.00;26.00;;;;;22.50;63.59;100973.70;110264;1250;20058;-38
2023/07/11 05:00:29;;;;;;;;;18.50;17.00;;;;;22.50;63.51;100971.27;110203;1249;22963;-39
2023/07/11 05:02:56;;;;;;;;;15.50;15.00;;;;;22.48;63.36;100972.07;110250;1256;20719;-39
2023/07/11 05:05:23;;;;;;;;;19.00;16.00;;;;;22.41;63.70;100975.67;110096;1264;19973;-39
2023/07/11 05:07:51;;;;;;;;;20.00;19.00;;;;;22.38;63.93;100977.13;110207;1250;20151;-38
2023/07/11 05:10:18;;;;;;;;;24.00;24.00;;;;;22.38;64.07;100977.85;110192;1264;20605;-38
2023/07/11 05:12:46;;;;;;;;;18.00;17.00;;;;;22.43;63.73;100977.06;110289;1250;20048;-38
2023/07/11 05:15:13;;;;;;;;;17.00;17.00;;;;;22.32;64.22;100977.86;110155;1256;19585;-39
2023/07/11 05:17:40;;;;;;;;;18.00;17.50;;;;;22.39;63.99;100979.41;110155;1256;20901;-38
2023/07/11 05:20:08;;;;;;;;;23.00;20.00;;;;;22.47;63.66;100983.35;110261;1250;22864;-39
2023/07/11 05:22:35;;;;;;;;;26.67;24.33;;;;;22.50;63.59;100978.38;110280;1256;20033;-38
2023/07/11 05:25:03;;;;;;;;;15.00;15.00;;;;;22.55;63.31;100982.38;110098;1249;22564;-38
2023/07/11 05:27:30;;;;;;;;;17.50;16.00;;;;;22.57;63.35;100985.92;110199;1249;20253;-39
2023/07/11 05:29:58;;;;;;;;;15.50;14.50;;;;;22.56;63.58;100986.45;110224;1250;18650;-39
2023/07/11 05:32:25;;;;;;;;;18.00;17.50;;;;;22.59;63.43;100991.69;110220;1256;20629;-39
2023/07/11 05:34:53;;;;;;;;;16.00;14.00;;;;;22.66;63.37;100997.43;110196;1264;22144;-38
2023/07/11 05:37:20;;;;;;;;;19.00;18.00;;;;;22.66;63.39;100999.59;110213;1256;19944;-38
2023/07/11 05:39:47;;;;;;;;;24.50;23.00;;;;;22.57;63.39;100999.05;110204;1250;20826;-38
2023/07/11 05:42:15;;;;;;;;;24.00;22.00;;;;;22.53;63.46;100999.77;110225;1265;18619;-38
2023/07/11 05:44:42;;;;;;;;;22.00;19.00;;;;;22.57;63.22;101003.63;110287;1264;18886;-38
2023/07/11 05:47:10;;;;;;;;;21.50;20.50;;;;;22.60;63.33;101007.09;110297;1259;20683;-39
2023/07/11 05:49:38;;;;;;;;;18.00;18.00;;;;;22.58;63.27;101001.50;110257;1249;21300;-39
2023/07/11 05:52:05;;;;;;;;;19.50;18.00;;;;;22.52;63.37;101001.98;110175;1264;18736;-39
2023/07/11 05:54:33;;;;;;;;;19.00;18.00;;;;;22.51;63.49;100999.48;110200;1249;20755;-39
2023/07/11 05:57:01;;;;;;;;;18.00;17.00;;;;;22.52;63.17;100997.83;110172;1264;18576;-38
2023/07/11 05:59:29;;;;;;;;;15.00;15.00;;;;;22.46;63.17;101002.02;110212;1249;20027;-39
2023/07/11 06:01:56;;;;;;;;;18.00;17.00;;;;;22.52;63.05;101001.73;110210;1249;20836;-38
2023/07/11 06:04:24;;;;;;;;;15.00;15.00;;;;;22.48;63.10;100996.86;110210;1264;18766;-38
2023/07/11 06:06:51;;;;;;;;;31.00;29.33;;;;;22.48;63.15;100995.58;110198;1249;20196;-39
2023/07/11 06:09:18;;;;;;;;;27.67;25.33;;;;;22.52;63.20;100997.48;110251;1250;20746;-38
2023/07/11 06:11:46;;;;;;;;;28.00;26.00;;;;;22.54;63.01;100998.36;110244;1248;19871;-39
2023/07/11 06:14:13;;;;;;;;;19.00;18.00;;;;;22.56;63.05;100996.66;110186;1264;18774;-39
2023/07/11 06:16:41;;;;;;;;;19.00;18.00;;;;;22.56;63.12;100992.97;110286;1250;19424;-38
2023/07/11 06:19:08;;;;;;;;;18.50;17.50;;;;;22.57;63.06;100996.52;110208;1250;21486;-38
2023/07/11 06:21:35;;;;;;;;;15.00;14.00;;;;;22.59;62.98;100993.73;110198;1264;18677;-39
2023/07/11 06:24:03;;;;;;;;;17.00;17.00;;;;;22.67;63.13;100997.50;110182;1250;20689;-38
2023/07/11 06:26:30;;;;;;;;;16.00;16.00;;;;;22.72;62.87;101001.20;110270;1264;18601;-39
2023/07/11 06:28:58;;;;;;;;;20.00;16.00;;;;;22.72;63.10;101000.91;110197;1250;22355;-38
2023/07/11 06:31:25;;;;;;;;;16.00;15.00;;;;;22.82;62.76;100998.98;110197;1264;21102;-39
2023/07/11 06:33:53;;;;;;;;;22.00;19.00;;;;;22.86;62.60;100999.23;110188;1256;21219;-38
2023/07/11 06:36:20;;;;;;;;;17.50;16.50;;;;;22.88;62.49;100998.25;110220;1249;21310;-39
2023/07/11 06:38:47;;;;;;;;;15.00;14.33;;;;;22.95;62.15;100995.64;110240;1257;20610;-38
2023/07/11 06:41:15;;;;;;;;;17.67;16.00;;;;;23.03;61.94;100995.23;110253;1256;19853;-39
2023/07/11 06:43:42;;;;;;;;;17.00;16.00;;;;;23.06;61.55;100992.63;110231;1264;20162;-38
2023/07/11 06:46:10;;;;;;;;;;;;;;;23.12;61.11;100991.04;110189;1264;19367;-38
2023/07/11 06:48:37;;;;;;;;;19.00;18.00;;;;;23.16;60.93;100989.89;110199;1264;18913;-39
2023/07/11 06:51:05;;;;;;;;;14.00;12.00;;;;;23.14;60.89;100992.92;110185;1264;18627;-38
2023/07/11 06:53:32;;;;;;;;;18.00;16.00;;;;;23.15;60.63;100993.40;110223;1264;22206;-38
2023/07/11 06:55:59;;;;;;;;;18.00;18.00;;;;;23.19;60.38;100990.90;110218;1265;20165;-37
2023/07/11 06:58:27;;;;;;;;;16.50;15.50;;;;;23.18;60.39;100989.54;110260;1250;20472;-38
2023/07/11 07:00:54;;;;;;;;;15.00;15.00;;;;;23.21;60.31;100989.17;110243;1250;22197;-38
2023/07/11 07:03:22;;;;;;;;;18.50;17.00;;;;;23.30;59.98;100982.46;109976;1264;246453;-39
2023/07/11 07:05:50;;;;;;;;;18.00;16.00;;;;;23.33;59.81;100980.20;110180;1265;21217;-38
2023/07/11 07:08:17;;;;;;;;;16.00;15.00;;;;;23.40;59.54;100982.63;110277;1264;20716;-38
2023/07/11 07:10:45;;;;;;;;;19.00;18.00;;;;;23.50;59.43;100982.52;110247;1264;18573;-38
2023/07/11 07:13:12;;;;;;;;;13.00;13.00;;;;;23.57;59.48;100979.11;110219;1264;18758;-38
2023/07/11 07:15:40;;;;;;;;;18.50;16.00;;;;;23.56;59.33;100985.41;110209;1259;19346;-39
2023/07/11 07:18:07;;;;;;;;;18.00;18.00;;;;;23.44;59.62;100984.52;110199;1265;20288;-38
2023/07/11 07:20:35;;;;;;;;;15.00;15.00;;;;;23.41;59.56;100986.48;110189;1264;20030;-38
2023/07/11 07:23:03;;;;;;;;;24.00;22.00;;;;;23.42;59.65;100984.95;110166;1257;20870;-38
2023/07/11 07:25:30;;;;;;;;;16.00;14.00;;;;;23.39;59.67;100982.82;110217;1250;20029;-38
2023/07/11 07:27:58;;;;;;;;;22.00;20.00;;;;;23.36;59.64;100980.17;110190;1250;20227;-38
2023/07/11 07:30:25;;;;;;;;;19.67;18.00;;;;;23.37;59.79;100979.89;110213;1264;19367;-39
2023/07/11 07:32:53;;;;;;;;;18.00;18.00;;;;;23.38;59.88;100982.91;110195;1257;18575;-38
2023/07/11 07:35:20;;;;;;;;;20.00;17.00;;;;;23.44;60.01;100981.80;110181;1249;21372;-38
2023/07/11 07:37:47;;;;;;;;;15.00;15.00;;;;;23.44;59.91;100980.08;110192;1264;20593;-39
2023/07/11 07:40:15;;;;;;;;;20.00;19.00;;;;;23.44;59.92;100978.52;110210;1249;20255;-38
2023/07/11 07:42:42;;;;;;;;;19.00;17.00;;;;;23.46;59.68;100978.38;110197;1250;20206;-38
2023/07/11 07:45:10;;;;;;;;;16.00;16.00;;;;;23.50;59.41;100972.84;110251;1250;20836;-39
2023/07/11 07:47:37;;;;;;;;;16.00;16.00;;;;;23.58;59.09;100974.17;110206;1264;18918;-38
2023/07/11 07:50:05;;;;;;;;;19.00;16.00;;;;;23.61;58.80;100970.15;110131;1265;18726;-39
2023/07/11 07:52:32;;;;;;;;;17.00;16.00;;;;;23.57;58.67;100970.53;110169;1250;22410;-39
2023/07/11 07:54:59;;;;;;;;;19.00;16.00;;;;;23.54;58.48;100968.17;110173;1249;20103;-39
2023/07/11 07:57:27;;;;;;;;;13.00;13.00;;;;;23.56;58.25;100969.55;110156;1256;24174;-38
2023/07/11 07:59:54;;;;;;;;;15.00;15.00;;;;;23.59;58.01;100964.11;110166;1264;19337;-39
2023/07/11 08:02:22;;;;;;;;;15.00;14.00;;;;;23.55;57.84;100968.61;110182;1251;20045;-39
2023/07/11 08:04:49;;;;;;;;;14.00;14.00;;;;;23.52;57.55;100967.46;110147;1264;20251;-39
2023/07/11 08:07:16;;;;;;;;;15.00;13.00;;;;;23.58;57.09;100963.60;110141;1257;20599;-39
2023/07/11 08:09:44;;;;;;;;;15.00;12.00;;;;;23.71;56.37;100961.52;110139;1250;20246;-39
2023/07/11 08:12:11;;;;;;;;;17.00;13.00;;;;;23.85;55.81;100964.14;110178;1250;20399;-39
2023/07/11 08:14:39;;;;;;;;;14.00;13.00;;;;;23.93;55.52;100967.89;110187;1249;20818;-38
2023/07/11 08:17:06;;;;;;;;;13.00;12.00;;;;;23.99;55.26;100968.05;110101;1257;20023;-38
2023/07/11 08:19:34;;;;;;;;;14.00;12.00;;;;;24.02;55.08;100967.13;110180;1264;18681;-39
2023/07/11 08:22:01;;;;;;;;;13.00;13.00;;;;;24.06;54.83;100969.86;110212;1264;20655;-39
2023/07/11 08:24:28;;;;;;;;;10.00;10.00;;;;;24.16;54.81;100965.43;110217;1250;20062;-40
2023/07/11 08:26:56;;;;;;;;;13.00;12.50;;;;;24.21;54.83;100972.48;110162;1264;20198;-39
2023/07/11 08:29:24;;;;;;;;;11.33;10.00;;;;;24.17;54.66;100975.71;110277;1249;20737;-39
2023/07/11 08:31:52;;;;;;;;;14.00;12.00;;;;;24.12;54.67;100972.89;110233;1264;19946;-39
2023/07/11 08:34:20;;;;;;;;;10.00;10.00;;;;;24.09;54.84;100970.41;110147;1250;21815;-39
2023/07/11 08:36:47;;;;;;;;;12.00;10.00;;;;;24.10;54.84;100969.61;110234;1264;19421;-39
2023/07/11 08:39:15;;;;;;;;;14.50;12.00;;;;;24.13;54.87;100969.60;110113;1264;20940;-37
2023/07/11 08:41:43;;;;;;;;;12.00;10.00;;;;;24.14;55.01;100971.26;110149;1265;21742;-36
2023/07/11 08:44:10;;;;;;;;;10.00;10.00;;;;;24.15;54.94;100967.96;110244;1265;19409;-38
2023/07/11 08:46:38;;;;;;;;;16.00;13.00;;;;;24.18;54.74;100969.79;110177;1265;20255;-39
2023/07/11 08:49:06;;;;;;;;;12.00;12.00;;;;;24.16;54.82;100966.27;110177;1264;21875;-38
2023/07/11 08:51:34;;;;;;;;;13.00;13.00;;;;;24.18;54.74;100961.91;110210;1264;20382;-40
2023/07/11 08:54:03;;;;;;;;;14.67;14.00;;;;;24.22;54.47;100958.62;110187;1265;22718;-40
2023/07/11 08:56:36;;;;;;;;;16.00;14.00;;;;;24.28;54.63;100960.45;110239;1264;20462;-39
2023/07/11 08:59:04;;;;;;;;;13.00;12.00;;;;;24.34;54.54;100957.06;110275;1265;22107;-38
2023/07/11 09:01:32;;;;;;;;;12.50;12.50;;;;;24.37;54.48;100959.94;110194;1260;19984;-39
2023/07/11 09:03:59;;;;;;;;;12.50;12.00;;;;;24.36;54.58;100959.59;110162;1256;20001;-38
2023/07/11 09:06:27;;;;;;;;;13.50;12.50;;;;;24.36;54.48;100963.01;110305;1250;22603;-38
2023/07/11 09:08:54;;;;;;;;;12.00;12.00;;;;;24.38;54.62;100951.48;110250;1264;18821;-38
2023/07/11 09:11:22;;;;;;;;;11.00;10.00;;;;;24.39;54.59;100955.46;110200;1264;20100;-39
2023/07/11 09:13:49;;;;;;;;;13.00;11.00;;;;;24.41;54.66;100959.98;110180;1265;20786;-39
2023/07/11 09:16:17;;;;;;;;;10.00;10.00;;;;;24.41;54.49;100959.55;110211;1250;23269;-39
2023/07/11 09:18:44;;;;;;;;;10.00;9.00;;;;;24.41;54.57;100961.63;110207;1250;20056;-39
2023/07/11 09:21:12;;;;;;;;;10.00;9.50;;;;;24.41;54.68;100966.05;110240;1250;20761;-40
2023/07/11 09:23:40;;;;;;;;;9.33;8.33;;;;;24.42;54.39;100966.41;110275;1250;18764;-39
2023/07/11 09:26:07;;;;;;;;;12.00;12.00;;;;;24.40;54.61;100965.75;110270;1249;22656;-39
2023/07/11 09:28:35;;;;;;;;;12.00;10.00;;;;;24.34;54.59;100964.87;110263;1256;20906;-39
2023/07/11 09:31:02;;;;;;;;;12.00;11.00;;;;;24.35;54.75;100968.39;110265;1250;20019;-40
2023/07/11 09:33:30;;;;;;;;;137.67;111.33;;;;;24.39;55.05;100965.31;110207;1250;20098;-40
2023/07/11 09:35:57;;;;;;;;;101.50;75.00;;;;;24.44;55.14;100963.42;110107;1250;20836;-39
2023/07/11 09:38:24;;;;;;;;;95.00;70.00;;;;;24.50;55.23;100962.64;110170;1256;20667;-37
2023/07/11 09:40:52;;;;;;;;;86.67;64.33;;;;;24.56;55.30;100955.73;110281;1249;20093;-39
2023/07/11 09:43:19;;;;;;;;;88.00;64.00;;;;;24.65;55.42;100949.20;110257;1250;22022;-39
2023/07/11 09:45:47;;;;;;;;;83.00;61.00;;;;;24.72;55.55;100948.59;110213;1250;20091;-39
2023/07/11 09:48:14;;;;;;;;;74.00;56.00;;;;;24.73;55.79;100948.30;110201;1249;20170;-40
2023/07/11 09:50:42;;;;;;;;;66.00;53.00;;;;;24.73;56.03;100942.56;110192;1250;20794;-40
2023/07/11 09:53:09;;;;;;;;;65.00;50.00;;;;;24.74;56.03;100938.73;110202;1264;20257;-41
2023/07/11 09:55:37;;;;;;;;;62.00;48.00;;;;;24.72;56.00;100934.34;110177;1265;18749;-39
2023/07/11 09:58:04;;;;;;;;;54.33;42.00;;;;;24.75;56.21;100937.40;110179;1264;19814;-39
2023/07/11 10:00:32;;;;;;;;;40.00;34.00;;;;;24.78;56.26;100937.54;110180;1264;18641;-39
2023/07/11 10:03:00;;;;;;;;;30.00;28.00;;;;;24.90;55.47;100939.08;110209;1265;22705;-39
2023/07/11 10:05:28;;;;;;;;;30.50;27.50;;;;;24.91;55.22;100944.81;110226;1250;20739;-39
2023/07/11 10:07:58;;;;;;;;;33.00;25.00;;;;;24.87;55.35;100947.61;110245;1249;20160;-37
2023/07/11 10:10:25;;;;;;;;;25.00;23.00;;;;;24.83;55.43;100948.00;110201;1264;20125;-38
2023/07/11 10:12:53;;;;;;;;;21.00;19.00;;;;;24.81;55.29;100948.80;110212;1264;19692;-38
2023/07/11 10:15:21;;;;;;;;;23.50;21.00;;;;;24.80;54.98;100943.13;110264;1265;20063;-38
2023/07/11 10:17:48;;;;;;;;;20.50;20.00;;;;;24.76;54.89;100936.21;110163;1265;19027;-38
2023/07/11 10:20:16;;;;;;;;;22.00;21.33;;;;;24.80;54.61;100932.23;110199;1264;20946;-38
2023/07/11 10:22:43;;;;;;;;;20.00;18.00;;;;;24.90;54.49;100935.70;110254;1264;19952;-38
2023/07/11 10:25:11;;;;;;;;;17.00;16.67;;;;;25.00;54.28;100932.34;110179;1264;20096;-38
2023/07/11 10:27:38;;;;;;;;;14.67;14.67;;;;;24.98;54.23;100937.05;110280;1256;20729;-38
2023/07/11 10:30:06;;;;;;;;;13.50;13.50;;;;;24.92;54.28;100940.02;110254;1256;19980;-38
2023/07/11 10:32:33;;;;;;;;;14.00;13.00;;;;;24.88;54.07;100941.36;110263;1249;20028;-38
2023/07/11 10:35:01;;;;;;;;;17.00;15.00;;;;;24.91;53.98;100936.16;110248;1250;20779;-38
2023/07/11 10:37:28;;;;;;;;;13.33;13.33;;;;;24.92;53.85;100927.48;110245;1264;18641;-38
2023/07/11 10:39:56;;;;;;;;;18.00;17.00;;;;;25.05;53.38;100920.63;110241;1264;19418;-38
2023/07/11 10:42:23;;;;;;;;;17.00;15.00;;;;;25.05;53.23;100927.59;110226;1250;21129;-38
2023/07/11 10:44:50;;;;;;;;;18.00;17.00;;;;;25.02;53.67;100926.62;110237;1264;21274;-38
2023/07/11 10:47:18;;;;;;;;;19.33;17.00;;;;;24.94;53.15;100924.42;110191;1264;22140;-39
2023/07/11 10:49:46;;;;;;;;;17.00;15.00;;;;;25.13;53.07;100923.23;110237;1256;19517;-39
2023/07/11 10:52:16;;;;;;;;;17.00;15.00;;;;;25.22;52.79;100919.55;110171;1264;18680;-39
2023/07/11 10:54:44;;;;;;;;;17.00;14.00;;;;;25.13;53.30;100921.75;110200;1251;20074;-38
2023/07/11 10:57:11;;;;;;;;;15.00;14.00;;;;;25.08;54.12;100921.37;110179;1250;21066;-38
2023/07/11 10:59:39;;;;;;;;;15.00;14.00;;;;;25.05;54.55;100917.85;110191;1264;18581;-40
2023/07/11 11:02:06;;;;;;;;;15.00;15.00;;;;;25.01;54.59;100914.42;110147;1250;22911;-39
2023/07/11 11:04:34;;;;;;;;;15.00;14.00;;;;;25.02;54.72;100919.14;110181;1250;20795;-40